sensor_id;sensor_type;location;lat;lon;timestamp;pressure;altitude;pressure_sealevel;temperature;humidity
72124;BME280;63818;37.134;-8.548;2023-02-01T00:00:43;102449.4;;;11.9;54.4
72124;BME280;63818;37.134;-8.548;2023-02-01T00:05:29;102447.0;;;11.9;54.5
72124;BME280;63818;37.134;-8.548;2023-02-01T00:10:17;102444.5;;;11.9;54.5
72124;BME280;63818;37.134;-8.548;2023-02-01T00:15:04;102443.2;;;11.8;54.1
72124;BME280;63818;37.134;-8.548;2023-02-01T00:19:58;102431.4;;;11.8;53.7
72124;BME280;63818;37.134;-8.548;2023-02-01T00:29:35;102429.8;;;11.8;53.3
72124;BME280;63818;37.134;-8.548;2023-02-01T00:34:25;102420.3;;;11.9;51.9
72124;BME280;63818;37.134;-8.548;2023-02-01T00:39:12;102424.9;;;11.9;51.7
72124;BME280;63818;37.134;-8.548;2023-02-01T00:44:11;102410.6;;;11.9;51.1
72124;BME280;63818;37.134;-8.548;2023-02-01T00:48:59;102404.9;;;12.0;49.8
72124;BME280;63818;37.134;-8.548;2023-02-01T00:53:46;102399.9;;;11.8;50.0
72124;BME280;63818;37.134;-8.548;2023-02-01T00:58:34;102399.9;;;11.8;49.8
72124;BME280;63818;37.134;-8.548;2023-02-01T01:03:20;102377.2;;;11.8;49.2
72124;BME280;63818;37.134;-8.548;2023-02-01T01:08:07;102379.4;;;11.8;49.3
72124;BME280;63818;37.134;-8.548;2023-02-01T01:12:53;102371.6;;;11.9;49.2
72124;BME280;63818;37.134;-8.548;2023-02-01T01:17:41;102370.8;;;11.8;48.6
72124;BME280;63818;37.134;-8.548;2023-02-01T01:22:29;102370.8;;;11.7;49.2
72124;BME280;63818;37.134;-8.548;2023-02-01T01:27:15;102380.5;;;11.6;49.9
72124;BME280;63818;37.134;-8.548;2023-02-01T01:32:08;102377.8;;;11.5;50.1
72124;BME280;63818;37.134;-8.548;2023-02-01T01:36:54;102380.8;;;11.5;51.4
72124;BME280;63818;37.134;-8.548;2023-02-01T01:41:42;102384.3;;;11.4;51.8
72124;BME280;63818;37.134;-8.548;2023-02-01T01:46:31;102385.4;;;11.4;51.4
72124;BME280;63818;37.134;-8.548;2023-02-01T01:51:20;102378.7;;;11.4;52.4
72124;BME280;63818;37.134;-8.548;2023-02-01T01:56:07;102380.3;;;11.3;52.1
72124;BME280;63818;37.134;-8.548;2023-02-01T02:00:56;102381.6;;;11.3;52.7
72124;BME280;63818;37.134;-8.548;2023-02-01T02:10:35;102374.9;;;11.4;50.5
72124;BME280;63818;37.134;-8.548;2023-02-01T02:15:22;102373.8;;;11.4;49.8
72124;BME280;63818;37.134;-8.548;2023-02-01T02:20:39;102373.0;;;11.5;49.1
72124;BME280;63818;37.134;-8.548;2023-02-01T02:38:42;102370.0;;;11.4;47.9
72124;BME280;63818;37.134;-8.548;2023-02-01T02:43:35;102360.9;;;11.4;47.8
72124;BME280;63818;37.134;-8.548;2023-02-01T02:48:58;102363.9;;;11.4;47.6
72124;BME280;63818;37.134;-8.548;2023-02-01T02:53:49;102364.4;;;11.4;48.0
72124;BME280;63818;37.134;-8.548;2023-02-01T02:58:39;102360.4;;;11.3;48.6
72124;BME280;63818;37.134;-8.548;2023-02-01T03:03:26;102354.5;;;11.2;50.0
72124;BME280;63818;37.134;-8.548;2023-02-01T03:08:18;102350.5;;;11.1;50.2
72124;BME280;63818;37.134;-8.548;2023-02-01T03:13:07;102347.8;;;11.1;50.1
72124;BME280;63818;37.134;-8.548;2023-02-01T03:18:01;102343.7;;;11.1;50.3
72124;BME280;63818;37.134;-8.548;2023-02-01T03:22:53;102343.2;;;11.1;50.4
72124;BME280;63818;37.134;-8.548;2023-02-01T03:27:43;102352.3;;;11.0;50.8
72124;BME280;63818;37.134;-8.548;2023-02-01T03:32:34;102352.3;;;11.1;51.2
72124;BME280;63818;37.134;-8.548;2023-02-01T03:37:24;102351.2;;;11.0;51.5
72124;BME280;63818;37.134;-8.548;2023-02-01T03:42:19;102351.0;;;11.0;50.9
72124;BME280;63818;37.134;-8.548;2023-02-01T03:47:13;102346.2;;;10.9;50.4
72124;BME280;63818;37.134;-8.548;2023-02-01T03:52:01;102347.0;;;11.0;50.5
72124;BME280;63818;37.134;-8.548;2023-02-01T03:56:48;102340.5;;;10.9;50.5
72124;BME280;63818;37.134;-8.548;2023-02-01T04:01:41;102340.0;;;10.9;50.4
72124;BME280;63818;37.134;-8.548;2023-02-01T04:06:38;102336.2;;;10.9;50.8
72124;BME280;63818;37.134;-8.548;2023-02-01T04:11:27;102333.8;;;10.9;51.2
72124;BME280;63818;37.134;-8.548;2023-02-01T04:16:13;102334.0;;;10.8;52.5
72124;BME280;63818;37.134;-8.548;2023-02-01T04:21:01;102337.3;;;10.8;53.2
72124;BME280;63818;37.134;-8.548;2023-02-01T04:25:47;102336.5;;;10.7;53.1
72124;BME280;63818;37.134;-8.548;2023-02-01T04:30:33;102349.1;;;10.7;52.8
72124;BME280;63818;37.134;-8.548;2023-02-01T04:35:26;102347.5;;;10.7;53.0
72124;BME280;63818;37.134;-8.548;2023-02-01T04:40:13;102355.8;;;10.7;53.2
72124;BME280;63818;37.134;-8.548;2023-02-01T04:44:59;102348.0;;;10.7;53.3
72124;BME280;63818;37.134;-8.548;2023-02-01T04:49:48;102346.4;;;10.6;52.3
72124;BME280;63818;37.134;-8.548;2023-02-01T04:54:39;102350.2;;;10.6;52.1
72124;BME280;63818;37.134;-8.548;2023-02-01T04:59:25;102340.5;;;10.6;51.9
72124;BME280;63818;37.134;-8.548;2023-02-01T05:04:11;102331.9;;;10.7;50.7
72124;BME280;63818;37.134;-8.548;2023-02-01T05:08:57;102332.7;;;10.6;51.2
72124;BME280;63818;37.134;-8.548;2023-02-01T05:13:43;102329.2;;;10.6;51.6
72124;BME280;63818;37.134;-8.548;2023-02-01T05:18:31;102336.7;;;10.6;51.3
72124;BME280;63818;37.134;-8.548;2023-02-01T05:23:19;102333.2;;;10.5;51.4
72124;BME280;63818;37.134;-8.548;2023-02-01T05:28:09;102331.9;;;10.5;51.6
72124;BME280;63818;37.134;-8.548;2023-02-01T05:32:55;102327.3;;;10.3;52.6
72124;BME280;63818;37.134;-8.548;2023-02-01T05:37:41;102335.6;;;10.4;53.1
72124;BME280;63818;37.134;-8.548;2023-02-01T05:42:31;102324.9;;;10.4;52.2
72124;BME280;63818;37.134;-8.548;2023-02-01T05:47:24;102322.7;;;10.4;51.8
72124;BME280;63818;37.134;-8.548;2023-02-01T05:52:10;102330.8;;;10.4;51.3
72124;BME280;63818;37.134;-8.548;2023-02-01T05:57:01;102319.5;;;10.4;51.3
72124;BME280;63818;37.134;-8.548;2023-02-01T06:01:47;102325.4;;;10.3;51.2
72124;BME280;63818;37.134;-8.548;2023-02-01T06:06:45;102324.3;;;10.3;50.9
72124;BME280;63818;37.134;-8.548;2023-02-01T06:11:31;102327.6;;;10.4;50.9
72124;BME280;63818;37.134;-8.548;2023-02-01T06:16:17;102324.1;;;10.3;50.6
72124;BME280;63818;37.134;-8.548;2023-02-01T06:21:07;102333.2;;;10.3;50.7
72124;BME280;63818;37.134;-8.548;2023-02-01T06:26:00;102329.7;;;10.3;50.8
72124;BME280;63818;37.134;-8.548;2023-02-01T06:30:47;102331.0;;;10.3;50.6
72124;BME280;63818;37.134;-8.548;2023-02-01T06:35:33;102329.4;;;10.3;50.4
72124;BME280;63818;37.134;-8.548;2023-02-01T06:40:19;102335.5;;;10.1;50.8
72124;BME280;63818;37.134;-8.548;2023-02-01T06:45:10;102343.7;;;9.7;51.7
72124;BME280;63818;37.134;-8.548;2023-02-01T06:49:56;102338.5;;;9.5;52.4
72124;BME280;63818;37.134;-8.548;2023-02-01T06:54:41;102338.1;;;9.3;53.7
72124;BME280;63818;37.134;-8.548;2023-02-01T06:59:27;102342.6;;;9.2;55.0
72124;BME280;63818;37.134;-8.548;2023-02-01T07:04:14;102348.4;;;9.0;57.1
72124;BME280;63818;37.134;-8.548;2023-02-01T07:09:04;102360.4;;;9.0;57.6
72124;BME280;63818;37.134;-8.548;2023-02-01T07:13:51;102365.7;;;9.0;57.5
72124;BME280;63818;37.134;-8.548;2023-02-01T07:18:37;102358.1;;;8.8;57.8
72124;BME280;63818;37.134;-8.548;2023-02-01T07:23:25;102360.8;;;8.8;57.8
72124;BME280;63818;37.134;-8.548;2023-02-01T07:28:22;102363.2;;;8.9;56.9
72124;BME280;63818;37.134;-8.548;2023-02-01T07:33:08;102360.6;;;8.9;56.8
72124;BME280;63818;37.134;-8.548;2023-02-01T07:37:54;102364.9;;;9.0;56.2
72124;BME280;63818;37.134;-8.548;2023-02-01T07:42:40;102360.5;;;8.9;57.0
72124;BME280;63818;37.134;-8.548;2023-02-01T07:47:30;102370.3;;;8.7;58.2
72124;BME280;63818;37.134;-8.548;2023-02-01T07:52:17;102378.8;;;8.6;58.8
72124;BME280;63818;37.134;-8.548;2023-02-01T07:57:03;102385.7;;;8.6;59.4
72124;BME280;63818;37.134;-8.548;2023-02-01T08:01:54;102390.7;;;8.5;59.4
72124;BME280;63818;37.134;-8.548;2023-02-01T08:06:41;102391.9;;;8.6;59.3
72124;BME280;63818;37.134;-8.548;2023-02-01T08:11:30;102384.1;;;8.9;58.5
72124;BME280;63818;37.134;-8.548;2023-02-01T08:16:18;102405.0;;;9.1;57.8
72124;BME280;63818;37.134;-8.548;2023-02-01T08:21:06;102395.9;;;9.1;57.5
72124;BME280;63818;37.134;-8.548;2023-02-01T08:26:06;102396.9;;;9.1;57.7
72124;BME280;63818;37.134;-8.548;2023-02-01T08:30:52;102399.5;;;9.2;57.7
72124;BME280;63818;37.134;-8.548;2023-02-01T08:35:38;102413.2;;;9.4;57.8
72124;BME280;63818;37.134;-8.548;2023-02-01T08:40:27;102413.5;;;9.4;57.3
72124;BME280;63818;37.134;-8.548;2023-02-01T08:45:13;102404.8;;;9.5;57.0
72124;BME280;63818;37.134;-8.548;2023-02-01T08:49:59;102420.3;;;9.5;57.2
72124;BME280;63818;37.134;-8.548;2023-02-01T08:54:48;102416.1;;;9.6;56.6
72124;BME280;63818;37.134;-8.548;2023-02-01T08:59:34;102433.2;;;9.6;57.1
72124;BME280;63818;37.134;-8.548;2023-02-01T09:04:22;102436.6;;;9.7;56.1
72124;BME280;63818;37.134;-8.548;2023-02-01T09:09:08;102443.6;;;9.8;54.9
72124;BME280;63818;37.134;-8.548;2023-02-01T09:13:54;102438.8;;;9.8;54.7
72124;BME280;63818;37.134;-8.548;2023-02-01T09:18:43;102441.5;;;10.0;54.4
72124;BME280;63818;37.134;-8.548;2023-02-01T09:23:29;102446.4;;;10.0;53.6
72124;BME280;63818;37.134;-8.548;2023-02-01T09:28:15;102455.8;;;10.0;53.7
72124;BME280;63818;37.134;-8.548;2023-02-01T09:33:11;102456.4;;;10.1;53.3
72124;BME280;63818;37.134;-8.548;2023-02-01T09:37:57;102463.6;;;10.1;53.2
72124;BME280;63818;37.134;-8.548;2023-02-01T09:42:50;102465.9;;;10.2;52.6
72124;BME280;63818;37.134;-8.548;2023-02-01T09:47:44;102477.7;;;10.3;52.9
72124;BME280;63818;37.134;-8.548;2023-02-01T09:52:40;102479.1;;;10.4;53.3
72124;BME280;63818;37.134;-8.548;2023-02-01T09:57:40;102478.1;;;10.5;52.5
72124;BME280;63818;37.134;-8.548;2023-02-01T10:02:28;102495.3;;;10.6;52.2
72124;BME280;63818;37.134;-8.548;2023-02-01T10:07:26;102496.4;;;10.6;52.3
72124;BME280;63818;37.134;-8.548;2023-02-01T10:12:41;102503.6;;;10.6;53.1
72124;BME280;63818;37.134;-8.548;2023-02-01T10:17:43;102504.2;;;10.7;53.1
72124;BME280;63818;37.134;-8.548;2023-02-01T10:22:38;102505.8;;;10.7;52.9
72124;BME280;63818;37.134;-8.548;2023-02-01T10:27:34;102504.8;;;10.8;52.5
72124;BME280;63818;37.134;-8.548;2023-02-01T10:32:23;102502.6;;;10.9;52.6
72124;BME280;63818;37.134;-8.548;2023-02-01T10:37:30;102498.6;;;10.9;52.9
72124;BME280;63818;37.134;-8.548;2023-02-01T10:42:17;102506.4;;;11.0;52.8
72124;BME280;63818;37.134;-8.548;2023-02-01T10:47:11;102499.4;;;11.0;53.0
72124;BME280;63818;37.134;-8.548;2023-02-01T10:52:04;102495.2;;;11.1;52.9
72124;BME280;63818;37.134;-8.548;2023-02-01T10:56:51;102505.4;;;11.1;53.0
72124;BME280;63818;37.134;-8.548;2023-02-01T11:01:40;102491.7;;;11.1;52.3
72124;BME280;63818;37.134;-8.548;2023-02-01T11:06:29;102488.5;;;11.2;51.5
72124;BME280;63818;37.134;-8.548;2023-02-01T11:11:16;102485.5;;;11.3;50.5
72124;BME280;63818;37.134;-8.548;2023-02-01T11:16:09;102480.6;;;11.3;49.8
72124;BME280;63818;37.134;-8.548;2023-02-01T11:21:00;102480.4;;;11.3;46.8
72124;BME280;63818;37.134;-8.548;2023-02-01T11:25:51;102473.1;;;11.3;46.8
72124;BME280;63818;37.134;-8.548;2023-02-01T11:30:40;102464.0;;;11.3;45.9
72124;BME280;63818;37.134;-8.548;2023-02-01T11:35:42;102446.8;;;11.4;44.2
72124;BME280;63818;37.134;-8.548;2023-02-01T11:40:34;102439.2;;;11.4;43.4
72124;BME280;63818;37.134;-8.548;2023-02-01T11:45:26;102432.7;;;11.5;42.6
72124;BME280;63818;37.134;-8.548;2023-02-01T11:50:16;102434.3;;;11.6;42.2
72124;BME280;63818;37.134;-8.548;2023-02-01T11:55:11;102417.9;;;11.6;41.6
72124;BME280;63818;37.134;-8.548;2023-02-01T12:00:24;102409.8;;;11.8;41.2
72124;BME280;63818;37.134;-8.548;2023-02-01T12:05:24;102403.3;;;11.9;40.4
72124;BME280;63818;37.134;-8.548;2023-02-01T12:10:23;102389.6;;;11.9;40.5
72124;BME280;63818;37.134;-8.548;2023-02-01T12:15:18;102377.2;;;11.9;39.7
72124;BME280;63818;37.134;-8.548;2023-02-01T12:27:42;102384.4;;;12.1;44.5
72124;BME280;63818;37.134;-8.548;2023-02-01T12:32:45;102377.9;;;12.1;45.3
72124;BME280;63818;37.134;-8.548;2023-02-01T12:37:48;102384.1;;;12.1;46.9
72124;BME280;63818;37.134;-8.548;2023-02-01T12:42:40;102373.9;;;12.1;46.8
72124;BME280;63818;37.134;-8.548;2023-02-01T12:47:53;102356.3;;;12.2;45.3
72124;BME280;63818;37.134;-8.548;2023-02-01T12:52:48;102362.0;;;12.2;46.6
72124;BME280;63818;37.134;-8.548;2023-02-01T12:57:37;102358.7;;;12.2;48.6
72124;BME280;63818;37.134;-8.548;2023-02-01T13:02:27;102372.8;;;12.2;53.0
72124;BME280;63818;37.134;-8.548;2023-02-01T13:07:18;102351.6;;;12.0;50.0
72124;BME280;63818;37.134;-8.548;2023-02-01T13:17:04;102329.4;;;12.2;47.8
72124;BME280;63818;37.134;-8.548;2023-02-01T13:21:56;102324.2;;;12.3;48.8
72124;BME280;63818;37.134;-8.548;2023-02-01T13:26:43;102315.0;;;12.4;47.4
72124;BME280;63818;37.134;-8.548;2023-02-01T13:31:37;102315.2;;;12.5;50.1
72124;BME280;63818;37.134;-8.548;2023-02-01T13:36:35;102308.1;;;12.6;50.7
72124;BME280;63818;37.134;-8.548;2023-02-01T13:41:28;102304.0;;;12.7;52.1
72124;BME280;63818;37.134;-8.548;2023-02-01T13:46:18;102304.5;;;12.7;54.0
72124;BME280;63818;37.134;-8.548;2023-02-01T13:51:05;102300.7;;;12.8;53.8
72124;BME280;63818;37.134;-8.548;2023-02-01T13:55:58;102283.6;;;12.8;54.5
72124;BME280;63818;37.134;-8.548;2023-02-01T14:00:48;102287.0;;;13.0;55.3
72124;BME280;63818;37.134;-8.548;2023-02-01T14:06:03;102281.2;;;13.1;55.2
72124;BME280;63818;37.134;-8.548;2023-02-01T14:10:56;102280.4;;;13.2;54.7
72124;BME280;63818;37.134;-8.548;2023-02-01T14:15:56;102275.7;;;13.3;53.4
72124;BME280;63818;37.134;-8.548;2023-02-01T14:20:50;102273.6;;;13.4;53.6
72124;BME280;63818;37.134;-8.548;2023-02-01T14:25:36;102269.1;;;13.6;55.4
72124;BME280;63818;37.134;-8.548;2023-02-01T14:30:25;102269.0;;;13.9;55.4
72124;BME280;63818;37.134;-8.548;2023-02-01T14:35:17;102264.2;;;14.2;55.8
72124;BME280;63818;37.134;-8.548;2023-02-01T14:40:19;102262.0;;;14.7;54.5
72124;BME280;63818;37.134;-8.548;2023-02-01T14:50:35;102242.0;;;21.1;42.4
72124;BME280;63818;37.134;-8.548;2023-02-01T14:55:30;102221.9;;;22.9;38.2
72124;BME280;63818;37.134;-8.548;2023-02-01T15:00:23;102214.4;;;23.7;35.4
72124;BME280;63818;37.134;-8.548;2023-02-01T15:05:23;102215.9;;;24.3;34.9
72124;BME280;63818;37.134;-8.548;2023-02-01T15:10:12;102198.4;;;24.6;33.0
72124;BME280;63818;37.134;-8.548;2023-02-01T15:15:11;102214.4;;;25.3;33.5
72124;BME280;63818;37.134;-8.548;2023-02-01T15:20:14;102207.5;;;24.9;33.0
72124;BME280;63818;37.134;-8.548;2023-02-01T15:29:52;102213.6;;;23.7;33.7
72124;BME280;63818;37.134;-8.548;2023-02-01T15:34:51;102210.3;;;24.0;33.6
72124;BME280;63818;37.134;-8.548;2023-02-01T15:40:14;102216.8;;;24.3;33.4
72124;BME280;63818;37.134;-8.548;2023-02-01T15:44:55;102213.2;;;23.9;33.8
72124;BME280;63818;37.134;-8.548;2023-02-01T15:49:57;102218.9;;;23.6;34.3
72124;BME280;63818;37.134;-8.548;2023-02-01T15:54:48;102228.5;;;23.1;35.0
72124;BME280;63818;37.134;-8.548;2023-02-01T15:59:42;102224.3;;;22.3;36.5
72124;BME280;63818;37.134;-8.548;2023-02-01T16:04:29;102229.0;;;21.3;37.2
72124;BME280;63818;37.134;-8.548;2023-02-01T16:09:16;102227.8;;;20.6;38.9
72124;BME280;63818;37.134;-8.548;2023-02-01T16:14:03;102230.2;;;20.3;39.4
72124;BME280;63818;37.134;-8.548;2023-02-01T16:18:54;102233.0;;;19.8;40.6
72124;BME280;63818;37.134;-8.548;2023-02-01T16:23:40;102234.0;;;19.2;41.1
72124;BME280;63818;37.134;-8.548;2023-02-01T16:33:19;102234.9;;;18.5;40.6
72124;BME280;63818;37.134;-8.548;2023-02-01T16:38:11;102225.5;;;18.1;40.2
72124;BME280;63818;37.134;-8.548;2023-02-01T16:43:05;102231.9;;;18.0;40.4
72124;BME280;63818;37.134;-8.548;2023-02-01T16:47:54;102236.5;;;17.8;40.7
72124;BME280;63818;37.134;-8.548;2023-02-01T16:53:01;102242.6;;;17.5;42.4
72124;BME280;63818;37.134;-8.548;2023-02-01T16:57:49;102247.9;;;17.3;44.0
72124;BME280;63818;37.134;-8.548;2023-02-01T17:02:35;102255.2;;;17.1;45.8
72124;BME280;63818;37.134;-8.548;2023-02-01T17:07:20;102242.1;;;16.8;45.6
72124;BME280;63818;37.134;-8.548;2023-02-01T17:12:17;102232.4;;;16.4;41.5
72124;BME280;63818;37.134;-8.548;2023-02-01T17:17:10;102231.3;;;16.1;41.5
72124;BME280;63818;37.134;-8.548;2023-02-01T17:21:56;102248.9;;;15.9;41.2
72124;BME280;63818;37.134;-8.548;2023-02-01T17:26:43;102244.9;;;15.7;41.7
72124;BME280;63818;37.134;-8.548;2023-02-01T17:31:31;102243.8;;;15.6;41.9
72124;BME280;63818;37.134;-8.548;2023-02-01T17:36:19;102250.9;;;15.5;42.9
72124;BME280;63818;37.134;-8.548;2023-02-01T17:41:08;102253.2;;;15.4;43.9
72124;BME280;63818;37.134;-8.548;2023-02-01T17:45:57;102261.6;;;15.2;44.7
72124;BME280;63818;37.134;-8.548;2023-02-01T17:50:57;102250.5;;;15.1;45.3
72124;BME280;63818;37.134;-8.548;2023-02-01T17:55:44;102255.1;;;14.8;46.8
72124;BME280;63818;37.134;-8.548;2023-02-01T18:00:30;102252.8;;;14.7;47.1
72124;BME280;63818;37.134;-8.548;2023-02-01T18:05:20;102253.6;;;14.6;47.5
72124;BME280;63818;37.134;-8.548;2023-02-01T18:10:10;102259.3;;;14.5;48.3
72124;BME280;63818;37.134;-8.548;2023-02-01T18:14:56;102253.9;;;14.5;48.3
72124;BME280;63818;37.134;-8.548;2023-02-01T18:19:44;102269.3;;;14.4;49.0
72124;BME280;63818;37.134;-8.548;2023-02-01T18:29:18;102278.1;;;14.3;49.5
72124;BME280;63818;37.134;-8.548;2023-02-01T18:34:11;102276.2;;;14.3;49.6
72124;BME280;63818;37.134;-8.548;2023-02-01T18:38:57;102274.6;;;14.3;50.0
72124;BME280;63818;37.134;-8.548;2023-02-01T18:48:34;102282.8;;;14.2;50.4
72124;BME280;63818;37.134;-8.548;2023-02-01T18:53:34;102274.7;;;14.2;50.3
72124;BME280;63818;37.134;-8.548;2023-02-01T18:58:22;102275.7;;;14.1;50.4
72124;BME280;63818;37.134;-8.548;2023-02-01T19:03:09;102282.3;;;14.1;51.0
72124;BME280;63818;37.134;-8.548;2023-02-01T19:12:49;102285.2;;;13.9;51.8
72124;BME280;63818;37.134;-8.548;2023-02-01T19:17:41;102292.0;;;13.8;52.0
72124;BME280;63818;37.134;-8.548;2023-02-01T19:22:28;102291.0;;;13.8;52.4
72124;BME280;63818;37.134;-8.548;2023-02-01T19:27:18;102304.9;;;13.7;52.8
72124;BME280;63818;37.134;-8.548;2023-02-01T19:32:07;102309.5;;;13.4;53.7
72124;BME280;63818;37.134;-8.548;2023-02-01T19:37:18;102310.9;;;13.4;54.1
72124;BME280;63818;37.134;-8.548;2023-02-01T19:42:05;102309.8;;;13.4;53.8
72124;BME280;63818;37.134;-8.548;2023-02-01T19:46:51;102311.4;;;13.4;53.9
72124;BME280;63818;37.134;-8.548;2023-02-01T19:51:39;102317.9;;;13.4;53.8
72124;BME280;63818;37.134;-8.548;2023-02-01T19:56:27;102312.3;;;13.4;53.8
72124;BME280;63818;37.134;-8.548;2023-02-01T20:01:13;102317.7;;;13.4;54.0
72124;BME280;63818;37.134;-8.548;2023-02-01T20:06:03;102325.2;;;13.4;53.9
72124;BME280;63818;37.134;-8.548;2023-02-01T20:11:00;102321.8;;;13.3;54.1
72124;BME280;63818;37.134;-8.548;2023-02-01T20:15:47;102332.6;;;13.2;54.2
72124;BME280;63818;37.134;-8.548;2023-02-01T20:20:39;102332.7;;;13.2;54.6
72124;BME280;63818;37.134;-8.548;2023-02-01T20:25:25;102329.0;;;13.2;54.8
72124;BME280;63818;37.134;-8.548;2023-02-01T20:30:13;102336.8;;;13.1;54.9
72124;BME280;63818;37.134;-8.548;2023-02-01T20:35:06;102333.9;;;13.0;55.0
72124;BME280;63818;37.134;-8.548;2023-02-01T20:39:53;102340.9;;;13.0;55.1
72124;BME280;63818;37.134;-8.548;2023-02-01T20:44:46;102340.1;;;13.0;55.4
72124;BME280;63818;37.134;-8.548;2023-02-01T20:49:32;102335.6;;;12.9;55.7
72124;BME280;63818;37.134;-8.548;2023-02-01T20:54:20;102334.3;;;12.9;55.5
72124;BME280;63818;37.134;-8.548;2023-02-01T20:59:07;102335.6;;;12.9;55.6
72124;BME280;63818;37.134;-8.548;2023-02-01T21:03:53;102337.8;;;12.9;55.8
72124;BME280;63818;37.134;-8.548;2023-02-01T21:08:42;102340.0;;;12.5;56.8
72124;BME280;63818;37.134;-8.548;2023-02-01T21:13:41;102340.0;;;12.4;57.5
72124;BME280;63818;37.134;-8.548;2023-02-01T21:18:28;102346.5;;;12.5;57.6
72124;BME280;63818;37.134;-8.548;2023-02-01T21:23:15;102338.9;;;12.5;57.5
72124;BME280;63818;37.134;-8.548;2023-02-01T21:28:03;102343.6;;;12.4;57.6
72124;BME280;63818;37.134;-8.548;2023-02-01T21:32:54;102347.9;;;12.4;57.7
72124;BME280;63818;37.134;-8.548;2023-02-01T21:37:42;102336.5;;;12.4;57.3
72124;BME280;63818;37.134;-8.548;2023-02-01T21:42:30;102342.0;;;12.4;57.7
72124;BME280;63818;37.134;-8.548;2023-02-01T21:47:18;102346.0;;;12.3;57.5
72124;BME280;63818;37.134;-8.548;2023-02-01T21:52:05;102348.5;;;12.2;57.7
72124;BME280;63818;37.134;-8.548;2023-02-01T21:56:54;102344.5;;;12.3;57.8
72124;BME280;63818;37.134;-8.548;2023-02-01T22:01:43;102344.7;;;12.2;57.7
72124;BME280;63818;37.134;-8.548;2023-02-01T22:06:31;102344.5;;;12.2;57.8
72124;BME280;63818;37.134;-8.548;2023-02-01T22:11:17;102345.9;;;12.1;57.9
72124;BME280;63818;37.134;-8.548;2023-02-01T22:16:12;102344.5;;;12.1;57.8
72124;BME280;63818;37.134;-8.548;2023-02-01T22:20:59;102344.0;;;12.1;58.0
72124;BME280;63818;37.134;-8.548;2023-02-01T22:25:46;102346.4;;;12.1;57.8
72124;BME280;63818;37.134;-8.548;2023-02-01T22:30:39;102343.7;;;12.1;57.8
72124;BME280;63818;37.134;-8.548;2023-02-01T22:35:25;102346.4;;;12.1;57.5
72124;BME280;63818;37.134;-8.548;2023-02-01T22:40:14;102344.8;;;12.1;57.5
72124;BME280;63818;37.134;-8.548;2023-02-01T22:45:03;102341.6;;;12.1;57.7
72124;BME280;63818;37.134;-8.548;2023-02-01T22:49:49;102333.3;;;11.9;58.2
72124;BME280;63818;37.134;-8.548;2023-02-01T22:54:37;102335.0;;;11.8;58.8
72124;BME280;63818;37.134;-8.548;2023-02-01T22:59:23;102336.6;;;11.8;58.5
72124;BME280;63818;37.134;-8.548;2023-02-01T23:04:12;102341.2;;;11.8;58.7
72124;BME280;63818;37.134;-8.548;2023-02-01T23:08:59;102338.8;;;11.7;58.6
72124;BME280;63818;37.134;-8.548;2023-02-01T23:13:52;102336.3;;;11.8;59.1
72124;BME280;63818;37.134;-8.548;2023-02-01T23:18:39;102336.6;;;11.8;59.1
72124;BME280;63818;37.134;-8.548;2023-02-01T23:23:25;102339.6;;;11.6;58.9
72124;BME280;63818;37.134;-8.548;2023-02-01T23:28:11;102344.4;;;11.6;58.8
72124;BME280;63818;37.134;-8.548;2023-02-01T23:32:57;102345.3;;;11.5;58.9
72124;BME280;63818;37.134;-8.548;2023-02-01T23:37:43;102348.0;;;11.5;59.0
72124;BME280;63818;37.134;-8.548;2023-02-01T23:42:28;102354.2;;;11.4;59.2
72124;BME280;63818;37.134;-8.548;2023-02-01T23:47:14;102359.3;;;11.4;59.2
72124;BME280;63818;37.134;-8.548;2023-02-01T23:52:03;102353.6;;;11.4;59.4
72124;BME280;63818;37.134;-8.548;2023-02-01T23:56:49;102354.7;;;11.4;59.5
